Bomnak, Russia
Current Conditions -  °F | °C
As of 7:00 AM on Monday 24 Nov 2014 (Local Time) from UHBB Reporting Station
Clear Clear  
Wind Chill: -2°   Ceiling: Unl
Heat Index: -2°   Visibility: 6mi
Dew Point: -2°   Wind: 2mph
Humidity: 100%   Direction: NA
Pressure: 30.24"   Gusts: NA
Location:  54.71°N, 128.86°E
Report Text: UHBB 232200Z VRB01MPS CAVOK M19/M19 Q1024 NOSIG RMK QFE750/100036810350
Loading
Personal Weather Stations






























Interactive Weather Map New forecast layout! Learn more

10-Day Weather Forecast

Advertisements
Track Severe Weather on mobile